Time;durP1;ratioP1;P1;durP2;ratioP2;P2;SDS_P1;SDS_P2;PMS_P1;PMS_P2;Temp;Humidity;BMP_temperature;BMP_pressure;BME280_temperature;BME280_humidity;BME280_pressure;Samples;Min_cycle;Max_cycle;Signal;HPM_P1;HPM_P2
2022/11/06 00:00:04;;;;;;;11.82;5.43;;;;;;;8.71;93.88;101218.59;5033760;28;20032;-73
2022/11/06 00:02:30;;;;;;;10.50;5.15;;;;;;;8.66;93.88;101219.00;5032241;28;20031;-70
2022/11/06 00:06:46;;;;;;;16.05;5.53;;;;;;;8.64;93.52;101214.75;5032139;28;20025;-72
2022/11/06 00:07:44;;;;;;;15.35;6.18;;;;;;;8.72;93.76;101212.22;5050252;28;20268;-74
2022/11/06 00:10:10;;;;;;;20.42;6.15;;;;;;;8.80;93.50;101220.50;5031872;28;20083;-74
2022/11/06 00:12:35;;;;;;;14.77;4.85;;;;;;;8.67;93.71;101214.47;5031725;28;20115;-73
2022/11/06 00:15:00;;;;;;;24.08;5.65;;;;;;;8.67;94.09;101214.47;5049031;28;20035;-73
2022/11/06 00:17:26;;;;;;;9.70;5.30;;;;;;;8.68;93.46;101222.44;5049721;28;20029;-74
2022/11/06 00:19:51;;;;;;;14.77;5.97;;;;;;;8.67;93.50;101219.84;5049172;28;20068;-74
2022/11/06 00:22:16;;;;;;;11.85;4.97;;;;;;;8.76;93.25;101224.44;5049420;28;20650;-74
2022/11/06 00:24:42;;;;;;;11.07;5.35;;;;;;;8.82;93.15;101213.09;5050487;28;20115;-74
2022/11/06 00:27:07;;;;;;;15.30;5.45;;;;;;;8.72;93.20;101209.50;5049420;28;20052;-74
2022/11/06 00:29:32;;;;;;;11.07;5.25;;;;;;;8.75;93.13;101201.16;5050825;28;20033;-74
2022/11/06 00:31:57;;;;;;;11.73;5.13;;;;;;;8.71;93.71;101205.09;5033719;28;20035;-74
2022/11/06 00:34:23;;;;;;;10.88;4.50;;;;;;;8.66;93.37;101204.66;5050989;28;20083;-74
2022/11/06 00:36:48;;;;;;;30.25;5.30;;;;;;;8.70;93.42;101198.00;5021530;28;20032;-74
2022/11/06 00:39:14;;;;;;;14.60;5.05;;;;;;;8.82;93.45;101205.00;5026843;28;20029;-74
2022/11/06 00:41:39;;;;;;;10.05;4.45;;;;;;;8.87;93.09;101205.44;5048973;28;20044;-72
2022/11/06 00:44:04;;;;;;;12.50;4.78;;;;;;;9.00;92.25;101198.91;5032224;28;20056;-72
2022/11/06 00:46:30;;;;;;;11.75;4.90;;;;;;;8.97;92.26;101195.50;5052024;28;20028;-72
2022/11/06 00:48:55;;;;;;;10.20;4.43;;;;;;;8.89;92.80;101198.06;5052140;28;20025;-73
2022/11/06 00:51:24;;;;;;;10.43;4.13;;;;;;;8.90;93.03;101194.34;5035661;28;20112;-71
2022/11/06 00:53:56;;;;;;;14.30;5.25;;;;;;;9.00;92.55;101194.38;5035388;28;20021;-72
2022/11/06 00:56:22;;;;;;;13.60;5.10;;;;;;;8.88;93.69;101196.34;5035463;28;20128;-74
2022/11/06 00:58:48;;;;;;;19.27;4.85;;;;;;;8.84;93.41;101194.91;5037100;28;20060;-73
2022/11/06 01:01:28;;;;;;;18.75;4.90;;;;;;;8.85;94.51;101185.81;5052451;28;20017;-73
2022/11/06 01:04:10;;;;;;;12.40;4.85;;;;;;;8.84;93.82;101184.09;5035816;28;20032;-72
2022/11/06 01:06:37;;;;;;;11.57;4.82;;;;;;;8.79;94.29;101180.97;5051882;28;20017;-73
2022/11/06 01:09:04;;;;;;;11.02;4.10;;;;;;;8.77;94.90;101182.09;5052555;28;20032;-69
2022/11/06 01:11:32;;;;;;;21.45;5.10;;;;;;;8.69;94.82;101188.22;5034273;28;20111;-71
2022/11/06 01:13:59;;;;;;;16.20;5.65;;;;;;;8.68;94.92;101189.19;5033763;28;20083;-71
2022/11/06 01:16:26;;;;;;;12.95;4.65;;;;;;;8.62;95.14;101189.75;5051837;28;20017;-69
2022/11/06 01:18:53;;;;;;;15.75;4.50;;;;;;;8.77;94.97;101184.81;5034197;28;20033;-69
2022/11/06 01:21:25;;;;;;;15.77;5.22;;;;;;;8.63;95.39;101175.25;5033699;28;20017;-70
2022/11/06 01:23:58;;;;;;;10.93;4.95;;;;;;;8.62;94.94;101184.34;5033533;28;20119;-69
2022/11/06 01:26:24;;;;;;;16.92;4.63;;;;;;;8.60;94.92;101175.53;5033402;28;20024;-69
2022/11/06 01:28:50;;;;;;;15.70;4.72;;;;;;;8.48;95.85;101176.66;5033713;28;20028;-69
2022/11/06 01:31:20;;;;;;;18.38;4.38;;;;;;;8.58;95.63;101177.50;5051056;28;20025;-69
2022/11/06 01:33:46;;;;;;;10.55;4.80;;;;;;;8.66;95.04;101180.38;5033899;28;20099;-70
2022/11/06 01:36:14;;;;;;;19.30;5.22;;;;;;;8.68;95.30;101173.00;5050920;28;20033;-70
2022/11/06 01:38:44;;;;;;;17.50;4.47;;;;;;;8.57;96.08;101168.56;5033365;28;20025;-70
2022/11/06 01:41:18;;;;;;;10.80;4.43;;;;;;;8.54;96.33;101160.75;5051185;28;20064;-70
2022/11/06 01:43:46;;;;;;;21.17;5.38;;;;;;;8.55;96.63;101156.22;5033692;28;20092;-71
2022/11/06 01:46:12;;;;;;;10.25;4.40;;;;;;;8.49;96.05;101148.66;5033436;28;20035;-71
2022/11/06 01:48:41;;;;;;;16.10;5.43;;;;;;;8.43;96.62;101142.81;5049733;28;20119;-72
2022/11/06 01:51:07;;;;;;;16.00;5.10;;;;;;;8.50;96.41;101143.13;5050025;28;20020;-71
2022/11/06 01:53:33;;;;;;;17.73;4.60;;;;;;;8.64;95.90;101133.78;5050929;28;20623;-71
2022/11/06 01:56:02;;;;;;;11.23;4.55;;;;;;;8.64;95.42;101139.19;5051199;28;20024;-71
2022/11/06 01:58:31;;;;;;;15.90;4.53;;;;;;;8.60;95.57;101143.13;5050842;28;20154;-69
2022/11/06 02:00:57;;;;;;;23.45;5.00;;;;;;;8.53;95.75;101147.38;5033418;28;20052;-70
2022/11/06 02:03:23;;;;;;;7.80;4.30;;;;;;;8.66;95.06;101131.78;5032939;28;20056;-70
2022/11/06 02:05:49;;;;;;;15.20;4.05;;;;;;;8.66;94.94;101121.84;5033422;28;20033;-69
2022/11/06 02:08:17;;;;;;;19.23;5.55;;;;;;;8.65;95.30;101130.06;5051019;28;20017;-70
2022/11/06 02:10:44;;;;;;;7.95;3.90;;;;;;;8.68;94.62;101119.88;5033252;28;20028;-70
2022/11/06 02:13:20;;;;;;;18.85;5.10;;;;;;;8.77;94.46;101128.97;5032620;28;20021;-70
2022/11/06 02:15:52;;;;;;;15.07;4.40;;;;;;;8.82;94.34;101125.84;5050632;28;20075;-71
2022/11/06 02:18:30;;;;;;;;;;;;;;;8.68;94.92;101119.88;5051297;28;20020;-69
2022/11/06 02:21:10;;;;;;;10.15;4.38;;;;;;;8.84;94.26;101119.31;5032983;28;20000;-71
2022/11/06 02:24:01;;;;;;;11.13;4.13;;;;;;;8.78;94.25;101119.88;5050299;28;20029;-72
2022/11/06 02:26:29;;;;;;;9.98;4.00;;;;;;;8.77;94.47;101118.16;5049488;28;20041;-71
2022/11/06 02:29:01;;;;;;;10.40;4.53;;;;;;;8.75;94.54;101112.06;5051072;28;20025;-70
2022/11/06 02:31:30;;;;;;;11.23;4.82;;;;;;;8.73;94.66;101114.03;5050401;28;20120;-69
2022/11/06 02:34:05;;;;;;;8.77;4.30;;;;;;;8.85;94.09;101115.59;5032615;28;20400;-68
2022/11/06 02:36:38;;;;;;;10.77;4.20;;;;;;;8.81;94.17;101108.81;5032933;28;20032;-69
2022/11/06 02:39:09;;;;;;;12.13;4.93;;;;;;;8.84;94.13;101113.91;5050893;28;20013;-67
2022/11/06 02:41:39;;;;;;;15.15;5.35;;;;;;;8.88;93.75;101099.13;5050357;28;20489;-69
2022/11/06 02:44:10;;;;;;;16.40;4.90;;;;;;;8.75;94.21;101103.97;5049954;28;20016;-69
2022/11/06 02:46:43;;;;;;;15.20;4.87;;;;;;;8.85;94.23;101094.00;5050731;28;20025;-69
2022/11/06 02:49:32;;;;;;;10.95;4.20;;;;;;;8.85;94.08;101085.91;5032457;28;20017;-69
2022/11/06 02:52:33;;;;;;;9.07;4.55;;;;;;;8.70;95.11;101090.03;5032351;28;20021;-68
2022/11/06 02:55:12;;;;;;;14.63;4.57;;;;;;;8.74;94.88;101086.06;5030480;28;20037;-69
2022/11/06 02:57:42;;;;;;;14.55;4.82;;;;;;;8.72;95.64;101090.72;5032979;28;20040;-70
2022/11/06 03:00:14;;;;;;;12.38;4.88;;;;;;;8.67;95.52;101079.50;5048542;28;20024;-68
2022/11/06 03:02:54;;;;;;;7.28;3.80;;;;;;;8.70;95.40;101080.09;5049813;28;20028;-70
2022/11/06 03:05:30;;;;;;;15.85;4.28;;;;;;;8.76;94.74;101078.66;5031812;28;20016;-69
2022/11/06 03:08:24;;;;;;;14.18;4.50;;;;;;;8.60;95.65;101083.75;5031417;28;20013;-69
2022/11/06 03:11:13;;;;;;;11.77;4.13;;;;;;;8.83;95.14;101068.16;5031653;28;20031;-69
2022/11/06 03:14:06;;;;;;;11.43;4.30;;;;;;;8.83;95.10;101069.00;5049859;28;20047;-70
2022/11/06 03:16:37;;;;;;;11.18;5.22;;;;;;;8.78;96.26;101060.47;5049668;28;20035;-70
2022/11/06 03:19:17;;;;;;;16.90;5.00;;;;;;;8.67;96.70;101057.91;5031659;28;20036;-68
2022/11/06 03:22:08;;;;;;;18.90;5.15;;;;;;;8.61;96.93;101063.91;5048455;28;20036;-68
2022/11/06 03:24:38;;;;;;;13.00;4.93;;;;;;;8.53;97.35;101044.81;5031691;28;20037;-68
2022/11/06 03:27:11;;;;;;;10.38;4.32;;;;;;;8.65;96.43;101049.09;5048284;28;20036;-70
2022/11/06 03:29:48;;;;;;;12.88;4.97;;;;;;;8.77;96.61;101050.66;5031613;28;20035;-70
2022/11/06 03:32:13;;;;;;;19.48;4.75;;;;;;;8.76;96.43;101057.06;5048345;28;20021;-69
2022/11/06 03:34:50;;;;;;;16.40;4.68;;;;;;;8.72;96.67;101061.03;5031386;28;20083;-70
2022/11/06 03:37:23;;;;;;;14.30;4.30;;;;;;;8.71;96.37;101043.13;5048212;28;20120;-68
2022/11/06 03:39:53;;;;;;;9.23;3.88;;;;;;;8.79;96.21;101051.38;5049314;28;20163;-70
2022/11/06 03:42:26;;;;;;;12.82;4.57;;;;;;;8.74;96.59;101059.06;5031381;28;20035;-69
2022/11/06 03:44:57;;;;;;;12.52;4.30;;;;;;;8.68;96.45;101048.84;5048835;28;20021;-69
2022/11/06 03:47:43;;;;;;;19.05;4.88;;;;;;;8.78;96.43;101044.28;5031008;28;20428;-70
2022/11/06 03:50:25;;;;;;;10.65;5.18;;;;;;;8.71;96.61;101043.13;5031475;28;20084;-69
2022/11/06 03:52:57;;;;;;;15.45;4.80;;;;;;;8.89;95.48;101046.84;5047910;28;20033;-70
2022/11/06 03:55:28;;;;;;;13.82;4.93;;;;;;;8.91;95.67;101044.84;5030983;28;20036;-69
2022/11/06 03:57:57;;;;;;;21.00;5.10;;;;;;;8.81;95.76;101037.75;5031114;28;20024;-69
2022/11/06 04:00:22;;;;;;;11.27;4.35;;;;;;;8.84;95.39;101032.06;5031192;28;20079;-69
2022/11/06 04:03:03;;;;;;;9.80;4.40;;;;;;;8.76;95.67;101030.06;5030847;28;20029;-71
2022/11/06 04:05:34;;;;;;;10.50;4.50;;;;;;;8.93;94.94;101026.66;5030814;28;20543;-69
2022/11/06 04:16:21;;;;;;;15.73;4.82;;;;;;;9.03;94.50;101042.00;5048638;28;20017;-70
2022/11/06 04:18:46;;;;;;;6.90;4.15;;;;;;;9.04;94.44;101038.28;5047140;28;20029;-71
2022/11/06 04:21:38;;;;;;;18.63;4.72;;;;;;;8.98;95.65;101040.56;5050769;28;20060;-70
2022/11/06 04:27:37;;;;;;;8.90;4.15;;;;;;;8.82;97.43;101040.31;5053400;23;20042;-72
2022/11/06 04:30:08;;;;;;;16.00;4.93;;;;;;;8.67;99.84;101042.59;5019429;28;20037;-72
2022/11/06 04:32:49;;;;;;;;;;;;;;;8.59;100.00;101038.88;5016320;28;20029;-72
2022/11/06 04:35:33;;;;;;;14.02;4.93;;;;;;;8.52;100.00;101040.44;4991797;28;19941;-72
2022/11/06 04:38:20;;;;;;;14.73;5.40;;;;;;;8.66;100.00;101046.25;4994457;28;20037;-72
2022/11/06 04:40:57;;;;;;;8.75;4.50;;;;;;;8.57;100.00;101047.13;4994042;28;20022;-72
2022/11/06 04:43:27;;;;;;;11.00;4.78;;;;;;;8.69;100.00;101045.13;4987611;28;20105;-72
2022/11/06 04:45:57;;;;;;;18.15;4.38;;;;;;;8.54;100.00;101035.75;5013775;28;20025;-72
2022/11/06 04:48:24;;;;;;;16.52;4.65;;;;;;;8.65;100.00;101032.91;4996079;28;20442;-73
2022/11/06 04:50:55;;;;;;;13.35;4.15;;;;;;;8.66;100.00;101037.31;4996089;28;20037;-72
2022/11/06 04:53:22;;;;;;;11.60;4.05;;;;;;;8.65;100.00;101038.31;4996107;28;20072;-72
2022/11/06 04:55:53;;;;;;;12.77;4.85;;;;;;;8.68;100.00;101024.53;5014019;28;20088;-72
2022/11/06 04:58:19;;;;;;;10.25;4.68;;;;;;;8.68;99.72;101038.03;4996822;28;20026;-72
2022/11/06 05:00:48;;;;;;;13.82;4.47;;;;;;;8.66;99.30;101024.66;5013399;28;20026;-72
2022/11/06 05:03:15;;;;;;;16.67;4.50;;;;;;;8.57;100.00;101030.06;4995810;28;20029;-72
2022/11/06 05:05:41;;;;;;;17.05;4.53;;;;;;;8.82;98.95;101040.31;5012945;28;20121;-72
2022/11/06 05:08:12;;;;;;;16.92;4.43;;;;;;;8.61;99.15;101021.56;4995475;28;20030;-72
2022/11/06 05:10:37;;;;;;;16.70;4.65;;;;;;;8.69;98.84;101028.94;4995343;28;20025;-72
2022/11/06 05:13:03;;;;;;;14.02;4.90;;;;;;;8.66;99.61;101024.66;4995378;28;20107;-72
2022/11/06 05:15:28;;;;;;;13.38;3.97;;;;;;;8.76;97.80;101024.69;4995996;28;20029;-72
2022/11/06 05:17:53;;;;;;;16.05;4.40;;;;;;;8.75;98.31;101028.38;4995482;28;20034;-72
2022/11/06 05:20:19;;;;;;;9.95;4.18;;;;;;;8.78;98.12;101027.22;4995375;28;20544;-72
2022/11/06 05:22:59;;;;;;;11.88;4.05;;;;;;;8.81;97.52;101022.41;4996334;28;20532;-72
2022/11/06 05:25:28;;;;;;;12.20;4.15;;;;;;;8.77;97.52;101026.38;4996163;28;20033;-72
2022/11/06 05:27:54;;;;;;;14.15;4.43;;;;;;;8.80;97.22;101018.00;4996086;28;20124;-72
2022/11/06 05:30:20;;;;;;;11.00;4.13;;;;;;;8.72;98.12;101023.25;5013703;28;20018;-72
2022/11/06 05:32:45;;;;;;;8.90;3.92;;;;;;;8.85;96.24;101010.31;4996407;28;20018;-71
2022/11/06 05:35:11;;;;;;;12.65;4.13;;;;;;;8.82;96.44;101018.69;4996528;28;20021;-72
2022/11/06 05:37:36;;;;;;;16.17;4.68;;;;;;;8.84;97.01;101022.09;4996762;28;20128;-72
2022/11/06 05:40:02;;;;;;;13.05;4.28;;;;;;;8.83;97.29;101016.84;4996514;28;20026;-71
2022/11/06 05:42:27;;;;;;;14.82;3.80;;;;;;;8.96;95.64;101015.56;4995354;28;20036;-72
2022/11/06 05:44:52;;;;;;;17.50;4.60;;;;;;;8.87;96.40;101019.13;4995632;28;20099;-71
2022/11/06 05:47:18;;;;;;;9.13;3.45;;;;;;;8.98;95.53;101024.34;5012393;28;20034;-71
2022/11/06 05:49:43;;;;;;;12.80;3.90;;;;;;;8.93;95.02;101025.78;4994816;28;20030;-71
2022/11/06 05:52:09;;;;;;;14.52;4.32;;;;;;;8.87;95.86;101027.22;4995207;28;20080;-71
2022/11/06 05:54:34;;;;;;;14.68;3.90;;;;;;;9.06;95.28;101030.88;5012294;28;20077;-72
2022/11/06 05:56:59;;;;;;;13.15;4.18;;;;;;;9.10;94.21;101022.34;4994495;28;20032;-72
2022/11/06 05:59:25;;;;;;;12.07;4.25;;;;;;;9.17;94.55;101022.63;4994584;28;20026;-72
2022/11/06 06:01:50;;;;;;;10.68;4.13;;;;;;;8.93;94.42;101032.06;4995143;28;20030;-72
2022/11/06 06:04:15;;;;;;;11.27;4.05;;;;;;;8.94;95.07;101022.97;4994768;28;20034;-72
2022/11/06 06:06:41;;;;;;;9.55;4.18;;;;;;;9.05;94.48;101019.22;5012425;28;20022;-72
2022/11/06 06:09:07;;;;;;;16.35;3.63;;;;;;;9.09;93.63;101017.09;4994039;28;20029;-73
2022/11/06 06:11:33;;;;;;;12.02;3.95;;;;;;;9.16;94.10;101026.31;5011938;28;20026;-72
2022/11/06 06:13:59;;;;;;;17.27;4.20;;;;;;;9.04;93.83;101027.47;5011434;28;20026;-71
2022/11/06 06:16:25;;;;;;;16.20;3.72;;;;;;;9.04;94.02;101016.69;5011844;28;20108;-71
2022/11/06 06:18:50;;;;;;;15.65;4.57;;;;;;;9.04;93.81;101032.88;5011363;28;20085;-71
2022/11/06 06:21:16;;;;;;;14.20;4.45;;;;;;;9.03;93.52;101033.88;4994090;28;20022;-71
2022/11/06 06:23:41;;;;;;;9.38;4.20;;;;;;;9.12;93.93;101030.31;4994162;28;20085;-71
2022/11/06 06:26:07;;;;;;;10.07;4.10;;;;;;;9.23;93.05;101039.09;4994053;28;20064;-72
2022/11/06 06:28:32;;;;;;;11.27;4.55;;;;;;;9.15;93.25;101036.28;4994254;28;20117;-71
2022/11/06 06:30:58;;;;;;;15.60;4.20;;;;;;;9.28;92.83;101030.56;4994329;28;20018;-72
2022/11/06 06:33:23;;;;;;;11.77;4.18;;;;;;;9.18;92.95;101027.03;4994208;28;20022;-72
2022/11/06 06:35:49;;;;;;;11.07;3.72;;;;;;;9.30;92.88;101033.97;5018361;28;20018;-71
2022/11/06 06:38:14;;;;;;;9.93;3.67;;;;;;;9.16;93.22;101016.38;4993949;28;20112;-71
2022/11/06 06:40:39;;;;;;;11.38;4.35;;;;;;;9.23;93.29;101028.28;4994212;28;20069;-71
2022/11/06 06:43:05;;;;;;;16.63;4.30;;;;;;;9.08;93.87;101023.50;5010409;28;20385;-71
2022/11/06 06:45:30;;;;;;;12.38;4.90;;;;;;;9.19;92.80;101026.03;5011224;28;20022;-71
2022/11/06 06:48:01;;;;;;;13.70;4.70;;;;;;;9.16;93.15;101032.59;5011257;28;20482;-72
2022/11/06 06:50:26;;;;;;;12.93;4.10;;;;;;;9.09;94.10;101020.66;5010258;28;20032;-71
2022/11/06 06:52:57;;;;;;;12.48;3.45;;;;;;;9.34;92.89;101019.19;4993933;28;20026;-72
2022/11/06 06:55:24;;;;;;;15.02;3.90;;;;;;;9.30;93.43;101022.31;5011001;28;20064;-72
2022/11/06 06:57:59;;;;;;;10.45;3.40;;;;;;;9.28;92.58;101027.88;4993995;28;20169;-71
2022/11/06 07:00:25;;;;;;;10.10;4.20;;;;;;;9.15;93.21;101021.94;4993787;28;20034;-71
2022/11/06 07:02:51;;;;;;;13.18;4.07;;;;;;;9.31;92.63;101024.84;5011739;28;20037;-72
2022/11/06 07:05:16;;;;;;;14.02;4.05;;;;;;;9.11;93.30;101020.50;4993203;28;20041;-72
2022/11/06 07:07:42;;;;;;;8.93;3.55;;;;;;;9.11;92.94;101018.66;5011674;28;20040;-72
2022/11/06 07:10:08;;;;;;;12.32;4.70;;;;;;;9.23;93.03;101027.44;5011947;28;20030;-72
2022/11/06 07:12:33;;;;;;;11.32;3.92;;;;;;;9.16;92.93;101023.63;4994113;28;20037;-72
2022/11/06 07:14:58;;;;;;;12.70;3.13;;;;;;;9.24;92.49;101029.16;5011886;28;20498;-73
2022/11/06 07:17:24;;;;;;;9.95;3.42;;;;;;;9.22;92.81;101025.75;5012902;28;20029;-72
2022/11/06 07:19:49;;;;;;;9.23;3.65;;;;;;;9.21;92.94;101018.66;5013265;28;20036;-73
2022/11/06 07:22:15;;;;;;;12.10;3.70;;;;;;;9.28;92.81;101022.47;5013291;28;20041;-73
2022/11/06 07:24:40;;;;;;;12.20;3.38;;;;;;;9.24;92.88;101012.94;5013577;28;20041;-72
2022/11/06 07:27:06;;;;;;;16.40;4.28;;;;;;;9.33;92.18;101019.34;5011754;28;20061;-72
2022/11/06 07:29:31;;;;;;;15.32;4.03;;;;;;;9.26;92.87;101021.78;5012206;28;20068;-73
2022/11/06 07:31:56;;;;;;;11.07;3.40;;;;;;;9.29;92.37;101020.63;5030648;28;20033;-72
2022/11/06 07:34:23;;;;;;;15.50;3.33;;;;;;;9.38;91.88;101028.69;5030820;28;20053;-72
2022/11/06 07:36:48;;;;;;;10.45;3.20;;;;;;;9.30;92.27;101028.56;5012788;28;20088;-73
2022/11/06 07:39:14;;;;;;;14.07;3.35;;;;;;;9.42;92.14;101027.41;5012830;28;20476;-73
2022/11/06 07:41:39;;;;;;;13.52;3.80;;;;;;;9.54;92.21;101019.13;5000363;28;20040;-72
2022/11/06 07:44:05;;;;;;;7.90;3.08;;;;;;;9.64;90.87;101030.72;5011050;28;20030;-72
2022/11/06 07:46:30;;;;;;;10.48;3.22;;;;;;;9.61;90.92;101020.22;4993998;28;20030;-72
2022/11/06 07:48:55;;;;;;;5.97;3.03;;;;;;;9.60;92.00;101023.94;4993692;28;20025;-72
2022/11/06 07:51:21;;;;;;;11.70;3.33;;;;;;;9.50;91.33;101019.41;4993732;28;20030;-72
2022/11/06 07:53:46;;;;;;;11.65;3.97;;;;;;;9.56;92.10;101022.50;4992401;28;20046;-72
2022/11/06 07:56:12;;;;;;;13.32;3.55;;;;;;;9.57;91.74;101019.66;4992740;28;20033;-71
2022/11/06 07:58:37;;;;;;;11.60;3.50;;;;;;;9.60;91.56;101029.34;4993305;28;20482;-73
2022/11/06 08:01:03;;;;;;;9.52;3.38;;;;;;;9.60;91.28;101023.94;5010178;28;20032;-72
2022/11/06 08:03:29;;;;;;;13.80;3.50;;;;;;;9.70;91.36;101019.31;4992728;28;20021;-72
2022/11/06 08:05:55;;;;;;;10.57;3.10;;;;;;;9.82;91.04;101006.47;5008978;28;20038;-73
2022/11/06 08:08:20;;;;;;;9.30;3.30;;;;;;;9.68;91.11;101015.91;4992392;28;20026;-73
2022/11/06 08:10:46;;;;;;;12.18;3.40;;;;;;;9.76;90.94;101018.72;5010004;28;20030;-72
2022/11/06 08:13:13;;;;;;;11.35;3.15;;;;;;;9.89;90.82;101030.06;4992646;28;20025;-72
2022/11/06 08:15:40;;;;;;;10.38;2.65;;;;;;;9.93;90.55;101020.66;4992573;28;20065;-72
2022/11/06 08:18:07;;;;;;;9.43;3.08;;;;;;;9.89;90.96;101019.22;5010789;28;20036;-73
2022/11/06 08:20:33;;;;;;;10.57;3.65;;;;;;;9.81;91.01;101016.44;4993065;28;20022;-72
2022/11/06 08:22:59;;;;;;;12.73;3.33;;;;;;;9.79;91.78;101002.22;5010754;28;20021;-73
2022/11/06 08:25:26;;;;;;;10.60;3.13;;;;;;;9.93;91.80;101004.41;5009824;28;20076;-72
2022/11/06 08:27:54;;;;;;;9.65;3.28;;;;;;;9.94;90.48;101000.69;4992427;28;20113;-72
2022/11/06 08:30:19;;;;;;;13.85;3.10;;;;;;;9.82;90.93;100985.69;4992510;28;20026;-72
2022/11/06 08:32:45;;;;;;;14.60;3.47;;;;;;;9.99;90.53;100992.16;4993096;28;20088;-72
2022/11/06 08:35:10;;;;;;;18.42;3.60;;;;;;;10.04;90.65;100996.09;5010357;28;20080;-72
2022/11/06 08:37:36;;;;;;;9.40;2.90;;;;;;;10.20;89.67;100994.56;4992545;28;20057;-73
2022/11/06 08:40:03;;;;;;;9.80;3.28;;;;;;;10.12;90.17;101008.00;4993733;28;20026;-73
2022/11/06 08:42:28;;;;;;;15.60;4.13;;;;;;;10.44;89.06;101002.97;5011325;28;20030;-73
2022/11/06 08:44:54;;;;;;;14.95;3.72;;;;;;;10.46;88.42;101006.38;4994441;28;20046;-73
2022/11/06 08:47:19;;;;;;;11.73;2.92;;;;;;;10.35;88.46;100998.47;5011962;28;20034;-73
2022/11/06 08:49:44;;;;;;;10.65;3.17;;;;;;;10.53;88.55;101007.44;5010566;28;20057;-73
2022/11/06 08:52:10;;;;;;;14.52;3.38;;;;;;;10.26;88.83;100999.41;4992709;28;20026;-72
2022/11/06 08:54:35;;;;;;;13.80;3.67;;;;;;;10.40;88.16;100985.34;5009890;28;20030;-75
2022/11/06 08:57:01;;;;;;;9.75;3.72;;;;;;;10.49;88.66;100989.81;4993516;28;20077;-75
2022/11/06 08:59:26;;;;;;;8.75;2.75;;;;;;;10.74;87.55;100992.75;4992514;28;20312;-72
2022/11/06 09:01:51;;;;;;;15.10;3.45;;;;;;;10.51;88.20;100982.41;5009454;28;20030;-75
2022/11/06 09:04:17;;;;;;;14.40;2.92;;;;;;;10.67;87.86;100986.25;4991732;28;20049;-73
2022/11/06 09:06:43;;;;;;;7.80;2.67;;;;;;;10.99;86.24;100981.09;4992849;28;20099;-74
2022/11/06 09:09:08;;;;;;;8.75;2.88;;;;;;;10.97;86.82;100966.88;5012910;28;20027;-74
2022/11/06 09:11:34;;;;;;;9.68;2.40;;;;;;;10.86;86.78;100956.28;4995591;28;20081;-74
2022/11/06 09:13:59;;;;;;;8.43;3.65;;;;;;;10.89;86.59;100969.53;5013942;28;20076;-74
2022/11/06 09:16:25;;;;;;;13.73;2.65;;;;;;;10.78;87.13;100967.91;5014347;28;20030;-74
2022/11/06 09:18:55;;;;;;;12.68;3.00;;;;;;;10.73;87.01;100969.38;5012698;28;20108;-74
2022/11/06 09:21:21;;;;;;;7.38;2.83;;;;;;;10.69;87.23;100984.22;5013264;28;20417;-75
2022/11/06 09:23:47;;;;;;;7.90;2.60;;;;;;;10.77;87.15;100976.19;4996634;28;20034;-74
2022/11/06 09:26:14;;;;;;;10.70;2.50;;;;;;;10.91;87.05;100978.31;4996185;28;20037;-74
2022/11/06 09:28:40;;;;;;;12.25;3.20;;;;;;;10.71;87.18;100982.25;5012786;28;20120;-74
2022/11/06 09:31:06;;;;;;;12.98;3.05;;;;;;;10.87;87.37;100982.34;5012919;28;20222;-74
2022/11/06 09:33:31;;;;;;;10.57;3.05;;;;;;;11.21;86.48;100984.28;5013941;28;20034;-75
2022/11/06 09:35:58;;;;;;;8.05;2.75;;;;;;;10.92;86.53;100996.28;4996307;28;20030;-75
2022/11/06 09:38:23;;;;;;;12.50;2.50;;;;;;;11.11;86.75;100981.69;4996374;28;20061;-75
2022/11/06 09:40:56;;;;;;;7.95;2.72;;;;;;;11.08;86.74;100985.56;4996175;28;20026;-73
2022/11/06 09:43:40;;;;;;;10.15;2.80;;;;;;;11.20;86.37;100982.59;4996414;28;20084;-74
2022/11/06 09:46:41;;;;;;;12.52;2.83;;;;;;;11.12;86.60;100981.53;5013971;28;20029;-74
2022/11/06 09:49:31;;;;;;;11.25;3.10;;;;;;;11.28;85.91;100991.63;4975181;28;20040;-74
2022/11/06 09:52:07;;;;;;;11.18;2.97;;;;;;;11.05;86.54;100991.31;4996285;28;20537;-74
2022/11/06 09:54:39;;;;;;;9.70;2.17;;;;;;;11.11;86.47;100990.66;5013102;28;20026;-74
2022/11/06 09:57:27;;;;;;;6.40;2.30;;;;;;;11.54;85.44;100986.19;4996600;28;20172;-74
2022/11/06 09:59:54;;;;;;;10.88;3.03;;;;;;;11.69;84.50;100987.28;4996590;28;20373;-74
2022/11/06 10:02:32;;;;;;;13.02;2.60;;;;;;;11.39;85.22;100983.22;4996270;28;20117;-74
2022/11/06 10:05:13;;;;;;;10.25;3.10;;;;;;;11.18;85.72;100979.19;4996221;28;20056;-74
2022/11/06 10:07:40;;;;;;;11.25;3.30;;;;;;;11.21;86.41;100973.44;4996635;28;20030;-74
2022/11/06 10:10:13;;;;;;;13.20;2.97;;;;;;;11.39;86.19;100971.50;4996514;28;20165;-75
2022/11/06 10:12:57;;;;;;;10.38;2.95;;;;;;;11.49;85.92;100956.00;4996302;28;20053;-73
2022/11/06 10:15:44;;;;;;;12.38;3.10;;;;;;;11.72;85.74;100963.53;4996653;28;20120;-73
2022/11/06 10:18:33;;;;;;;9.23;2.90;;;;;;;11.88;84.52;100960.94;5013303;28;20026;-72
2022/11/06 10:21:10;;;;;;;13.77;2.72;;;;;;;11.89;84.74;100973.47;4996539;28;20026;-74
2022/11/06 10:23:51;;;;;;;9.88;2.30;;;;;;;11.52;85.43;100965.66;4996550;28;20118;-74
2022/11/06 10:26:19;;;;;;;9.23;2.42;;;;;;;11.78;85.08;100965.59;5011382;23;20056;-70
2022/11/06 10:28:47;;;;;;;9.07;2.45;;;;;;;11.93;84.46;100959.44;5050150;28;20041;-72
2022/11/06 10:31:29;;;;;;;16.10;2.42;;;;;;;12.05;83.38;100965.38;5051809;28;20037;-72
2022/11/06 10:34:20;;;;;;;12.65;2.00;;;;;;;12.11;83.90;100951.13;5030186;28;20642;-73
2022/11/06 10:37:00;;;;;;;12.10;2.60;;;;;;;12.15;83.20;100938.94;5032469;28;20037;-73
2022/11/06 10:39:30;;;;;;;9.18;2.35;;;;;;;11.87;84.17;100940.25;5015034;28;20486;-73
2022/11/06 10:42:09;;;;;;;9.40;2.70;;;;;;;11.91;84.98;100950.59;5014529;28;20075;-73
2022/11/06 10:44:36;;;;;;;6.60;2.35;;;;;;;12.04;84.36;100950.09;5012664;28;20033;-71
2022/11/06 10:47:15;;;;;;;7.85;2.25;;;;;;;12.00;84.29;100943.34;5012494;28;20064;-72
2022/11/06 10:49:54;;;;;;;11.80;2.80;;;;;;;12.02;84.44;100945.88;4995087;28;20029;-71
2022/11/06 10:52:28;;;;;;;10.68;2.53;;;;;;;11.99;84.77;100952.47;5010851;28;20061;-71
2022/11/06 10:55:08;;;;;;;12.57;3.10;;;;;;;12.08;84.27;100946.06;4995326;28;20060;-72
2022/11/06 10:57:55;;;;;;;10.48;2.70;;;;;;;12.20;83.95;100938.47;5011267;28;20038;-72
2022/11/06 11:00:20;;;;;;;6.53;2.40;;;;;;;12.30;83.17;100932.84;4994271;28;20072;-72
2022/11/06 11:02:55;;;;;;;10.13;3.08;;;;;;;12.13;83.74;100943.69;4995020;28;20058;-73
2022/11/06 11:05:23;;;;;;;9.27;2.60;;;;;;;12.09;84.47;100926.03;5010872;28;20025;-71
2022/11/06 11:07:50;;;;;;;6.10;2.47;;;;;;;12.43;82.84;100917.75;5012009;28;20065;-72
2022/11/06 11:10:45;;;;;;;5.43;2.60;;;;;;;12.45;82.24;100904.00;5010831;28;20430;-72
2022/11/06 11:13:19;;;;;;;10.88;2.45;;;;;;;12.74;82.21;100904.34;4999731;28;20154;-71
2022/11/06 11:15:46;;;;;;;6.65;2.50;;;;;;;12.86;81.31;100895.84;5031537;28;20025;-72
2022/11/06 11:18:11;;;;;;;10.07;2.70;;;;;;;12.68;81.57;100888.72;5031441;28;20061;-72
2022/11/06 11:20:42;;;;;;;9.80;2.80;;;;;;;13.19;80.06;100878.41;5031282;28;20049;-72
2022/11/06 11:23:23;;;;;;;9.88;2.53;;;;;;;13.19;80.16;100870.25;5013745;28;20033;-73
2022/11/06 11:25:54;;;;;;;7.65;2.40;;;;;;;13.74;78.77;100880.22;5013821;28;20056;-73
2022/11/06 11:28:35;;;;;;;8.57;2.60;;;;;;;13.68;78.88;100880.09;5014088;28;20107;-72
2022/11/06 11:31:09;;;;;;;7.22;2.22;;;;;;;13.81;77.98;100883.09;5031007;28;20017;-72
2022/11/06 11:33:37;;;;;;;7.72;2.42;;;;;;;14.09;77.91;100878.00;5013382;28;20032;-73
2022/11/06 11:36:05;;;;;;;7.78;2.22;;;;;;;14.71;76.00;100880.56;5013359;28;20116;-73
2022/11/06 11:38:32;;;;;;;6.53;2.13;;;;;;;14.88;75.12;100867.63;5013308;28;20036;-73
2022/11/06 11:41:06;;;;;;;5.88;2.20;;;;;;;14.47;76.20;100869.88;5031045;28;20033;-73
2022/11/06 11:43:32;;;;;;;6.95;1.75;;;;;;;14.80;75.71;100860.38;5013326;28;20124;-73
2022/11/06 11:46:06;;;;;;;8.93;2.33;;;;;;;14.65;75.70;100865.78;5013445;28;20088;-73
2022/11/06 11:48:42;;;;;;;16.08;1.92;;;;;;;14.38;76.62;100856.28;5013413;28;20033;-74